createdAt,value
2024-02-20T00:01:47.395Z,68.37
2024-02-20T00:04:18.041Z,67.93
2024-02-20T00:06:45.223Z,68.56
2024-02-20T00:09:12.390Z,68.54
2024-02-20T00:11:39.951Z,67.94
2024-02-20T00:14:07.125Z,68.03
2024-02-20T00:16:34.364Z,68.45
2024-02-20T00:19:01.570Z,67.87
2024-02-20T00:21:28.836Z,68.41
2024-02-20T00:23:56.438Z,67.81
2024-02-20T00:26:23.882Z,67.56
2024-02-20T00:28:51.981Z,68.27
2024-02-20T00:31:18.785Z,67.52
2024-02-20T00:33:46.601Z,67.96
2024-02-20T00:36:13.600Z,67.76
2024-02-20T00:38:40.411Z,67.29
2024-02-20T00:41:08.529Z,68.15
2024-02-20T00:43:36.090Z,67.78
2024-02-20T00:46:05.449Z,67.49
2024-02-20T00:48:33.995Z,67.50
2024-02-20T00:51:00.906Z,68.28
2024-02-20T00:53:28.294Z,68.09
2024-02-20T00:55:55.360Z,67.93
2024-02-20T00:58:22.303Z,67.66
2024-02-20T01:00:49.715Z,67.51
2024-02-20T01:03:16.698Z,67.44
2024-02-20T01:05:43.771Z,67.64
2024-02-20T01:08:11.643Z,67.29
2024-02-20T01:10:39.131Z,67.57
2024-02-20T01:13:06.272Z,67.37
2024-02-20T01:15:33.799Z,67.49
2024-02-20T01:18:02.063Z,67.45
2024-02-20T01:20:29.189Z,67.28
2024-02-20T01:22:56.248Z,67.33
2024-02-20T01:25:23.520Z,67.28
2024-02-20T01:27:50.535Z,67.10
2024-02-20T01:30:17.773Z,66.76
2024-02-20T01:32:45.151Z,67.24
2024-02-20T01:35:12.339Z,67.21
2024-02-20T01:37:39.593Z,67.39
2024-02-20T01:40:09.130Z,67.28
2024-02-20T01:42:40.104Z,67.00
2024-02-20T01:45:07.624Z,67.11
2024-02-20T01:47:34.882Z,67.50
2024-02-20T01:50:03.102Z,67.15
2024-02-20T01:52:30.681Z,66.74
2024-02-20T01:55:01.622Z,67.17
2024-02-20T01:57:28.814Z,66.96
2024-02-20T01:59:56.452Z,67.21
2024-02-20T02:02:24.052Z,67.16
2024-02-20T02:04:51.351Z,66.84
2024-02-20T02:07:18.599Z,67.27
2024-02-20T02:09:46.288Z,67.00
2024-02-20T02:12:13.631Z,66.65
2024-02-20T02:14:44.503Z,67.18
2024-02-20T02:17:11.530Z,66.92
2024-02-20T02:19:39.126Z,67.09
2024-02-20T02:22:06.486Z,66.57
2024-02-20T02:24:37.912Z,66.22
2024-02-20T02:27:06.037Z,67.08
2024-02-20T02:29:33.779Z,67.38
2024-02-20T02:32:01.620Z,66.62
2024-02-20T02:34:31.959Z,66.92
2024-02-20T02:36:59.734Z,67.00
2024-02-20T02:39:27.669Z,66.90
2024-02-20T02:41:54.631Z,66.50
2024-02-20T02:44:22.077Z,66.59
2024-02-20T02:46:49.673Z,66.52
2024-02-20T02:49:17.029Z,66.62
2024-02-20T02:51:44.064Z,66.83
2024-02-20T02:54:11.248Z,66.42
2024-02-20T02:56:38.132Z,66.64
2024-02-20T02:59:05.883Z,66.08
2024-02-20T03:01:33.557Z,66.24
2024-02-20T03:04:01.388Z,66.40
2024-02-20T03:06:28.712Z,66.74
2024-02-20T03:08:56.306Z,66.48
2024-02-20T03:11:23.303Z,66.36
2024-02-20T03:13:51.151Z,67.08
2024-02-20T03:16:18.354Z,66.76
2024-02-20T03:18:45.853Z,66.44
2024-02-20T03:21:13.152Z,66.62
2024-02-20T03:23:41.429Z,66.36
2024-02-20T03:26:08.997Z,66.40
2024-02-20T03:28:35.935Z,66.31
2024-02-20T03:31:03.577Z,66.58
2024-02-20T03:33:34.815Z,66.42
2024-02-20T03:36:05.726Z,66.68
2024-02-20T03:38:32.780Z,66.21
2024-02-20T03:40:59.988Z,65.71
2024-02-20T03:43:28.232Z,66.34
2024-02-20T03:45:56.010Z,66.46
2024-02-20T03:48:23.351Z,66.56
2024-02-20T03:50:50.515Z,66.11
2024-02-20T03:53:18.434Z,66.34
2024-02-20T03:55:45.762Z,65.93
2024-02-20T03:58:13.849Z,66.35
2024-02-20T04:00:41.783Z,66.28
2024-02-20T04:03:09.103Z,66.04
2024-02-20T04:05:37.286Z,66.05
2024-02-20T04:08:05.241Z,66.46
2024-02-20T04:10:35.225Z,66.00
2024-02-20T04:13:02.945Z,66.54
2024-02-20T04:15:30.227Z,66.16
2024-02-20T04:17:58.015Z,66.15
2024-02-20T04:20:25.292Z,66.20
2024-02-20T04:22:52.636Z,66.32
2024-02-20T04:25:19.921Z,66.66
2024-02-20T04:27:49.188Z,66.18
2024-02-20T04:30:16.977Z,65.77
2024-02-20T04:32:44.451Z,66.16
2024-02-20T04:35:12.095Z,66.05
2024-02-20T04:37:39.783Z,66.21
2024-02-20T04:40:10.603Z,65.95
2024-02-20T04:42:38.230Z,66.18
2024-02-20T04:45:06.365Z,66.01
2024-02-20T04:47:33.687Z,65.82
2024-02-20T04:50:01.146Z,65.94
2024-02-20T04:52:29.325Z,66.14
2024-02-20T04:54:56.798Z,65.82
2024-02-20T04:57:24.627Z,65.89
2024-02-20T04:59:51.960Z,66.03
2024-02-20T05:02:19.208Z,66.12
2024-02-20T05:04:46.646Z,65.87
2024-02-20T05:07:15.609Z,65.89
2024-02-20T05:09:42.715Z,65.94
2024-02-20T05:12:10.502Z,65.71
2024-02-20T05:14:37.456Z,65.95
2024-02-20T05:17:04.424Z,66.22
2024-02-20T05:19:31.976Z,66.05
2024-02-20T05:21:59.131Z,66.13
2024-02-20T05:24:25.922Z,66.17
2024-02-20T05:26:53.534Z,66.03
2024-02-20T05:29:20.276Z,65.87
2024-02-20T05:31:47.558Z,65.83
2024-02-20T05:34:15.532Z,65.84
2024-02-20T05:36:42.611Z,66.01
2024-02-20T05:39:11.431Z,66.17
2024-02-20T05:41:39.627Z,65.85
2024-02-20T05:44:07.343Z,65.85
2024-02-20T05:46:35.405Z,66.14
2024-02-20T05:49:05.122Z,65.81
2024-02-20T05:51:33.876Z,65.73
2024-02-20T05:54:00.884Z,66.19
2024-02-20T05:56:28.223Z,66.13
2024-02-20T05:58:54.867Z,66.02
2024-02-20T06:01:22.564Z,66.18
2024-02-20T06:03:50.022Z,66.12
2024-02-20T06:06:17.194Z,65.87
2024-02-20T06:08:48.862Z,66.19
2024-02-20T06:11:18.867Z,66.07
2024-02-20T06:13:46.658Z,65.93
2024-02-20T06:16:14.450Z,65.83
2024-02-20T06:18:42.549Z,66.03
2024-02-20T06:21:10.516Z,65.85
2024-02-20T06:23:44.186Z,66.47
2024-02-20T06:26:15.701Z,65.93
2024-02-20T06:28:43.803Z,65.87
2024-02-20T06:31:10.907Z,66.26
2024-02-20T06:33:38.212Z,65.91
2024-02-20T06:36:06.177Z,66.15
2024-02-20T06:38:34.017Z,66.17
2024-02-20T06:41:02.522Z,66.28
2024-02-20T06:43:30.810Z,66.52
2024-02-20T06:45:58.866Z,66.17
2024-02-20T06:48:26.145Z,65.51
2024-02-20T06:50:54.218Z,65.89
2024-02-20T06:53:21.378Z,65.93
2024-02-20T06:55:48.961Z,66.07
2024-02-20T06:58:16.394Z,65.81
2024-02-20T07:00:44.189Z,65.26
2024-02-20T07:03:13.243Z,66.28
2024-02-20T07:05:41.146Z,65.95
2024-02-20T07:08:09.185Z,65.94
2024-02-20T07:10:36.512Z,65.91
2024-02-20T07:13:04.243Z,65.31
2024-02-20T07:15:32.452Z,65.04
2024-02-20T07:17:59.703Z,65.29
2024-02-20T07:20:28.811Z,65.31
2024-02-20T07:22:57.195Z,65.60
2024-02-20T07:25:26.215Z,66.02
2024-02-20T07:27:53.928Z,65.32
2024-02-20T07:30:22.393Z,65.62
2024-02-20T07:32:49.398Z,65.67
2024-02-20T07:35:19.474Z,65.57
2024-02-20T07:37:46.910Z,65.56
2024-02-20T07:40:14.313Z,65.41
2024-02-20T07:42:41.995Z,66.22
2024-02-20T07:45:09.464Z,65.53
2024-02-20T07:47:37.007Z,66.22
2024-02-20T07:50:06.011Z,66.31
2024-02-20T07:52:34.335Z,65.92
2024-02-20T07:55:02.776Z,68.97
2024-02-20T07:57:33.604Z,66.55
2024-02-20T08:00:01.266Z,66.60
2024-02-20T08:02:29.137Z,67.69
2024-02-20T08:04:56.181Z,67.34
2024-02-20T08:07:24.058Z,67.29
2024-02-20T08:09:56.755Z,67.06
2024-02-20T08:12:25.193Z,67.12
2024-02-20T08:14:52.136Z,66.86
2024-02-20T08:17:25.923Z,67.12
2024-02-20T08:19:53.296Z,66.94
2024-02-20T08:22:20.491Z,67.25
2024-02-20T08:24:47.547Z,67.08
2024-02-20T08:27:15.674Z,67.11
2024-02-20T08:29:42.764Z,66.77
2024-02-20T08:32:11.158Z,66.90
2024-02-20T08:34:38.486Z,67.41
2024-02-20T08:37:05.564Z,66.55
2024-02-20T08:39:33.742Z,67.09
2024-02-20T08:42:01.188Z,66.66
2024-02-20T08:44:28.856Z,66.96
2024-02-20T08:46:57.191Z,67.17
2024-02-20T08:49:25.475Z,66.54
2024-02-20T08:51:54.077Z,66.82
2024-02-20T08:54:21.220Z,66.51
2024-02-20T08:56:48.602Z,67.15
2024-02-20T08:59:15.754Z,67.38
2024-02-20T09:01:42.615Z,66.68
2024-02-20T09:04:13.586Z,66.63
2024-02-20T09:06:45.858Z,66.91
2024-02-20T09:09:14.733Z,66.25
2024-02-20T09:11:41.976Z,66.68
2024-02-20T09:14:09.608Z,66.30
2024-02-20T09:16:37.032Z,66.64
2024-02-20T09:19:04.594Z,66.44
2024-02-20T09:21:31.648Z,66.66
2024-02-20T09:23:58.500Z,66.32
2024-02-20T09:26:26.397Z,66.52
2024-02-20T09:28:54.423Z,66.58
2024-02-20T09:31:21.632Z,66.49
2024-02-20T09:33:52.387Z,66.15
2024-02-20T09:36:19.581Z,66.31
2024-02-20T09:38:46.840Z,66.44
2024-02-20T09:41:23.159Z,66.53
2024-02-20T09:43:51.187Z,65.91
2024-02-20T09:46:21.932Z,66.04
2024-02-20T09:48:50.761Z,66.46
2024-02-20T09:51:23.329Z,66.26
2024-02-20T09:53:55.680Z,66.38
2024-02-20T09:56:25.207Z,66.29
2024-02-20T09:58:53.112Z,66.68
2024-02-20T10:01:21.889Z,66.77
2024-02-20T10:03:52.368Z,66.23
2024-02-20T10:06:21.395Z,65.73
2024-02-20T10:08:52.267Z,65.83
2024-02-20T10:11:19.608Z,66.27
2024-02-20T10:13:52.800Z,66.35
2024-02-20T10:16:20.580Z,66.40
2024-02-20T10:19:00.908Z,65.74
2024-02-20T10:21:29.136Z,66.70
2024-02-20T10:24:14.032Z,66.77
2024-02-20T10:26:47.882Z,66.80
2024-02-20T10:29:15.561Z,66.46
2024-02-20T10:31:43.173Z,66.48
2024-02-20T10:34:14.720Z,66.04
2024-02-20T10:36:42.261Z,66.26
2024-02-20T10:39:13.974Z,66.50
2024-02-20T10:41:41.394Z,65.87
2024-02-20T10:44:09.356Z,66.23
2024-02-20T10:46:41.074Z,66.74
2024-02-20T10:49:21.323Z,66.58
2024-02-20T10:51:49.824Z,66.58
2024-02-20T10:54:22.514Z,66.53
2024-02-20T10:56:51.175Z,66.59
2024-02-20T10:59:19.183Z,66.35
2024-02-20T11:01:47.163Z,66.44
2024-02-20T11:04:15.872Z,66.70
2024-02-20T11:06:44.606Z,66.58
2024-02-20T11:09:12.444Z,66.45
2024-02-20T11:11:40.532Z,66.25
2024-02-20T11:14:08.586Z,66.24
2024-02-20T11:16:39.310Z,66.14
2024-02-20T11:19:09.485Z,66.25
2024-02-20T11:21:36.614Z,65.93
2024-02-20T11:24:16.524Z,66.23
2024-02-20T11:26:51.694Z,65.99
2024-02-20T11:29:31.140Z,65.69
2024-02-20T11:32:12.830Z,66.10
2024-02-20T11:34:40.955Z,66.15
2024-02-20T11:37:11.201Z,65.69
2024-02-20T11:39:40.417Z,65.57
2024-02-20T11:42:08.232Z,65.27
2024-02-20T11:44:39.153Z,65.56
2024-02-20T11:47:06.286Z,64.84
2024-02-20T11:49:35.870Z,65.08
2024-02-20T11:52:10.073Z,67.21
2024-02-20T11:54:37.128Z,66.40
2024-02-20T11:57:04.658Z,66.52
2024-02-20T11:59:31.999Z,67.24
2024-02-20T12:01:58.957Z,67.92
2024-02-20T12:04:30.024Z,68.65
2024-02-20T12:07:08.527Z,68.79
2024-02-20T12:09:35.727Z,69.86
2024-02-20T12:12:03.197Z,70.71
2024-02-20T12:14:30.154Z,69.94
2024-02-20T12:17:03.735Z,70.93
2024-02-20T12:19:32.896Z,71.81
2024-02-20T12:22:04.686Z,71.55
2024-02-20T12:24:33.192Z,71.64
2024-02-20T12:27:01.609Z,72.18
2024-02-20T12:29:28.544Z,71.44
2024-02-20T12:31:55.824Z,71.34
2024-02-20T12:34:26.745Z,72.08
2024-02-20T12:36:59.732Z,71.04
2024-02-20T12:39:27.041Z,72.43
2024-02-20T12:41:54.612Z,73.50
2024-02-20T12:44:22.206Z,71.61
2024-02-20T12:46:49.756Z,72.83
2024-02-20T12:49:17.055Z,72.55
2024-02-20T12:51:44.682Z,73.98
2024-02-20T12:54:11.639Z,71.83
2024-02-20T12:56:38.785Z,72.19
2024-02-20T12:59:06.713Z,71.51
2024-02-20T13:01:33.914Z,70.63
2024-02-20T13:04:04.045Z,72.09
2024-02-20T13:06:31.160Z,73.58
2024-02-20T13:08:58.905Z,71.62
2024-02-20T13:11:27.867Z,72.17
2024-02-20T13:13:58.338Z,70.80
2024-02-20T13:16:25.463Z,72.41
2024-02-20T13:18:53.067Z,72.49
2024-02-20T13:21:20.286Z,68.80
2024-02-20T13:23:48.015Z,70.37
2024-02-20T13:26:15.170Z,70.55
2024-02-20T13:28:42.418Z,71.37
2024-02-20T13:31:09.905Z,70.71
2024-02-20T13:33:37.460Z,71.86
2024-02-20T13:36:08.636Z,70.93
2024-02-20T13:38:41.351Z,70.42
2024-02-20T13:41:08.529Z,72.51
2024-02-20T13:43:40.445Z,72.57
2024-02-20T13:46:07.972Z,69.59
2024-02-20T13:48:35.212Z,70.98
2024-02-20T13:51:02.988Z,70.00
2024-02-20T13:53:32.909Z,69.46
2024-02-20T13:56:00.414Z,70.48
2024-02-20T13:58:28.928Z,69.80
2024-02-20T14:00:56.268Z,70.01
2024-02-20T14:03:25.792Z,72.49
2024-02-20T14:05:53.726Z,70.05
2024-02-20T14:08:21.475Z,71.26
2024-02-20T14:10:49.023Z,71.78
2024-02-20T14:13:16.262Z,71.30
2024-02-20T14:15:44.277Z,68.76
2024-02-20T14:18:11.917Z,73.14
2024-02-20T14:20:39.761Z,69.58
2024-02-20T14:23:07.822Z,70.78
2024-02-20T14:25:35.906Z,70.42
2024-02-20T14:28:03.617Z,70.80
2024-02-20T14:30:33.373Z,70.12
2024-02-20T14:33:05.676Z,71.54
2024-02-20T14:35:32.704Z,71.03
2024-02-20T14:38:00.337Z,70.27
2024-02-20T14:40:27.403Z,69.56
2024-02-20T14:42:54.295Z,72.37
2024-02-20T14:45:22.443Z,73.10
2024-02-20T14:47:52.452Z,72.53
2024-02-20T14:50:21.117Z,69.88
2024-02-20T14:52:48.334Z,70.89
2024-02-20T14:55:17.633Z,73.29
2024-02-20T14:57:49.097Z,71.79
2024-02-20T15:00:20.348Z,71.94
2024-02-20T15:02:48.544Z,70.43
2024-02-20T15:05:16.331Z,71.88
2024-02-20T15:07:44.238Z,70.62
2024-02-20T15:10:16.868Z,71.36
2024-02-20T15:12:45.856Z,71.21
2024-02-20T15:15:14.121Z,72.18
2024-02-20T15:17:43.565Z,70.87
2024-02-20T15:20:11.781Z,70.12
2024-02-20T15:22:39.449Z,69.57
2024-02-20T15:25:12.603Z,71.81
2024-02-20T15:27:41.062Z,71.33
2024-02-20T15:30:08.642Z,69.66
2024-02-20T15:32:36.148Z,70.33
2024-02-20T15:35:08.074Z,71.42
2024-02-20T15:37:35.427Z,70.51
2024-02-20T15:40:02.401Z,71.18
2024-02-20T15:42:29.910Z,69.86
2024-02-20T15:44:58.394Z,68.05
2024-02-20T15:47:25.614Z,69.14
2024-02-20T15:49:53.870Z,69.14
2024-02-20T15:52:23.843Z,71.11
2024-02-20T15:54:52.389Z,69.30
2024-02-20T15:57:19.915Z,70.52
2024-02-20T15:59:47.362Z,70.49
2024-02-20T16:02:14.937Z,70.48
2024-02-20T16:04:42.563Z,69.25
2024-02-20T16:07:09.743Z,70.29
2024-02-20T16:09:37.074Z,69.05
2024-02-20T16:12:06.262Z,68.30
2024-02-20T16:14:34.350Z,66.80
2024-02-20T16:17:02.844Z,69.44
2024-02-20T16:19:30.205Z,67.29
2024-02-20T16:21:57.380Z,69.65
2024-02-20T16:24:24.533Z,69.56
2024-02-20T16:26:51.362Z,69.13
2024-02-20T16:29:18.424Z,67.82
2024-02-20T16:31:51.050Z,67.15
2024-02-20T16:34:21.038Z,69.89
2024-02-20T16:36:49.058Z,69.45
2024-02-20T16:39:16.353Z,68.24
2024-02-20T16:41:43.325Z,67.93
2024-02-20T16:44:10.720Z,69.14
2024-02-20T16:46:37.808Z,70.02
2024-02-20T16:49:06.287Z,68.10
2024-02-20T16:51:33.904Z,69.58
2024-02-20T16:54:04.557Z,70.06
2024-02-20T16:56:33.479Z,68.98
2024-02-20T16:59:01.130Z,68.34
2024-02-20T17:01:29.384Z,68.13
2024-02-20T17:03:56.681Z,70.51
2024-02-20T17:06:23.967Z,70.02
2024-02-20T17:08:52.697Z,70.36
2024-02-20T17:11:19.660Z,67.45
2024-02-20T17:13:47.454Z,68.83
2024-02-20T17:16:14.963Z,69.32
2024-02-20T17:18:42.419Z,69.36
2024-02-20T17:21:13.296Z,70.57
2024-02-20T17:23:40.698Z,69.05
2024-02-20T17:26:08.885Z,69.10
2024-02-20T17:28:36.462Z,70.36
2024-02-20T17:31:05.270Z,69.88
2024-02-20T17:33:37.233Z,70.55
2024-02-20T17:36:05.157Z,70.19
2024-02-20T17:38:32.055Z,69.92
2024-02-20T17:40:59.126Z,69.11
2024-02-20T17:43:26.863Z,67.12
2024-02-20T17:45:54.335Z,70.03
2024-02-20T17:48:21.442Z,69.42
2024-02-20T17:50:51.938Z,69.15
2024-02-20T17:53:19.018Z,68.84
2024-02-20T17:55:46.252Z,66.82
2024-02-20T17:58:13.896Z,69.00
2024-02-20T18:00:40.776Z,69.72
2024-02-20T18:03:08.231Z,68.61
2024-02-20T18:05:35.252Z,68.85
2024-02-20T18:08:02.716Z,67.66
2024-02-20T18:10:29.811Z,68.66
2024-02-20T18:12:56.903Z,68.42
2024-02-20T18:15:24.069Z,67.79
2024-02-20T18:17:51.304Z,68.15
2024-02-20T18:20:18.513Z,67.70
2024-02-20T18:22:45.746Z,68.13
2024-02-20T18:25:13.024Z,68.48
2024-02-20T18:27:40.254Z,66.95
2024-02-20T18:30:10.799Z,68.25
2024-02-20T18:32:39.493Z,67.31
2024-02-20T18:35:07.573Z,67.21
2024-02-20T18:37:34.961Z,67.45
2024-02-20T18:40:01.746Z,67.12
2024-02-20T18:42:32.020Z,67.12
2024-02-20T18:45:00.189Z,67.58
2024-02-20T18:47:28.141Z,66.86
2024-02-20T18:49:55.797Z,67.44
2024-02-20T18:52:23.257Z,66.43
2024-02-20T18:54:51.303Z,66.84
2024-02-20T18:57:18.957Z,67.44
2024-02-20T18:59:45.946Z,66.39
2024-02-20T19:02:18.776Z,67.75
2024-02-20T19:04:55.945Z,67.32
2024-02-20T19:07:24.920Z,66.52
2024-02-20T19:09:52.039Z,65.85
2024-02-20T19:12:21.682Z,66.98
2024-02-20T19:14:49.409Z,66.13
2024-02-20T19:17:17.653Z,65.18
2024-02-20T19:19:44.990Z,66.72
2024-02-20T19:22:12.913Z,66.90
2024-02-20T19:24:42.214Z,67.22
2024-02-20T19:27:09.695Z,66.52
2024-02-20T19:29:37.644Z,66.15
2024-02-20T19:32:05.536Z,65.67
2024-02-20T19:34:33.589Z,66.37
2024-02-20T19:37:00.882Z,65.69
2024-02-20T19:39:28.677Z,66.03
2024-02-20T19:41:55.994Z,65.77
2024-02-20T19:44:25.600Z,66.60
2024-02-20T19:46:59.938Z,66.43
2024-02-20T19:49:27.478Z,64.23
2024-02-20T19:51:54.593Z,65.98
2024-02-20T19:54:21.372Z,64.68
2024-02-20T19:56:48.793Z,65.97
2024-02-20T19:59:15.821Z,66.25
2024-02-20T20:01:47.060Z,65.70
2024-02-20T20:04:15.143Z,66.04
2024-02-20T20:06:45.771Z,65.89
2024-02-20T20:09:14.789Z,65.51
2024-02-20T20:11:44.034Z,66.03
2024-02-20T20:14:12.016Z,65.20
2024-02-20T20:16:39.572Z,64.55
2024-02-20T20:19:09.437Z,65.39
2024-02-20T20:21:37.424Z,65.17
2024-02-20T20:24:14.514Z,65.35
2024-02-20T20:26:47.190Z,65.41
2024-02-20T20:29:15.061Z,65.47
2024-02-20T20:31:44.256Z,64.93
2024-02-20T20:34:11.771Z,65.33
2024-02-20T20:36:44.011Z,65.35
2024-02-20T20:39:11.067Z,65.17
2024-02-20T20:41:38.755Z,65.31
2024-02-20T20:44:06.408Z,64.83
2024-02-20T20:46:35.202Z,65.00
2024-02-20T20:49:02.662Z,65.26
2024-02-20T20:51:30.196Z,65.34
2024-02-20T20:53:57.213Z,65.66
2024-02-20T20:56:24.681Z,65.76
2024-02-20T20:58:51.860Z,66.49
2024-02-20T21:01:19.043Z,65.68
2024-02-20T21:03:47.243Z,66.22
2024-02-20T21:06:16.818Z,65.54
2024-02-20T21:08:44.157Z,66.41
2024-02-20T21:11:11.357Z,66.74
2024-02-20T21:13:39.078Z,66.03
2024-02-20T21:16:07.816Z,66.15
2024-02-20T21:18:35.730Z,66.28
2024-02-20T21:21:08.361Z,65.76
2024-02-20T21:23:36.062Z,65.79
2024-02-20T21:26:05.961Z,65.81
2024-02-20T21:28:38.963Z,66.35
2024-02-20T21:31:06.829Z,65.79
2024-02-20T21:33:34.558Z,65.94
2024-02-20T21:36:05.867Z,65.72
2024-02-20T21:38:34.270Z,65.11
2024-02-20T21:41:02.629Z,65.09
2024-02-20T21:43:30.668Z,65.81
2024-02-20T21:45:58.551Z,65.31
2024-02-20T21:48:26.076Z,65.81
2024-02-20T21:50:53.372Z,66.03
2024-02-20T21:53:20.924Z,65.93
2024-02-20T21:55:48.309Z,65.20
2024-02-20T21:58:15.637Z,65.14
2024-02-20T22:00:42.722Z,65.08
2024-02-20T22:03:10.123Z,65.51
2024-02-20T22:05:38.124Z,64.89
2024-02-20T22:08:06.559Z,65.19
2024-02-20T22:10:34.304Z,65.46
2024-02-20T22:13:01.697Z,65.19
2024-02-20T22:15:29.169Z,64.96
2024-02-20T22:17:57.200Z,65.22
2024-02-20T22:20:24.438Z,65.20
2024-02-20T22:22:51.723Z,65.25
2024-02-20T22:25:19.549Z,65.01
2024-02-20T22:27:47.008Z,64.67
2024-02-20T22:30:14.636Z,64.93
2024-02-20T22:32:43.158Z,65.09
2024-02-20T22:35:10.731Z,64.73
2024-02-20T22:37:37.646Z,64.31
2024-02-20T22:40:08.958Z,65.15
2024-02-20T22:42:36.611Z,64.71
2024-02-20T22:45:04.434Z,64.97
2024-02-20T22:47:32.824Z,64.41
2024-02-20T22:50:00.288Z,64.59
2024-02-20T22:52:27.837Z,64.99
2024-02-20T22:54:55.896Z,64.36
2024-02-20T22:57:24.608Z,64.93
2024-02-20T22:59:55.758Z,64.83
2024-02-20T23:02:23.930Z,64.23
2024-02-20T23:04:51.208Z,64.68
2024-02-20T23:07:19.086Z,65.04
2024-02-20T23:09:46.317Z,64.45
2024-02-20T23:12:14.803Z,64.39
2024-02-20T23:14:43.815Z,64.73
2024-02-20T23:17:11.126Z,64.81
2024-02-20T23:19:40.078Z,64.21
2024-02-20T23:22:07.123Z,64.55
2024-02-20T23:24:34.649Z,64.51
2024-02-20T23:27:01.815Z,64.59
2024-02-20T23:29:30.088Z,64.74
2024-02-20T23:31:57.846Z,64.29
2024-02-20T23:34:25.522Z,64.21
2024-02-20T23:36:52.540Z,64.63
2024-02-20T23:39:19.826Z,64.49
2024-02-20T23:41:46.676Z,64.63
2024-02-20T23:44:13.660Z,64.59
2024-02-20T23:46:40.754Z,64.61
2024-02-20T23:49:08.296Z,64.65
2024-02-20T23:51:35.937Z,64.69
2024-02-20T23:54:02.894Z,64.84
2024-02-20T23:56:30.077Z,64.66
2024-02-20T23:58:57.750Z,64.56
